createdAt,value
2023-03-27T00:01:37.291Z,99650.10
2023-03-27T00:04:05.823Z,99648.58
2023-03-27T00:06:34.772Z,99642.95
2023-03-27T00:09:04.691Z,99640.52
2023-03-27T00:11:33.368Z,99636.93
2023-03-27T00:14:01.648Z,99631.08
2023-03-27T00:16:30.676Z,99631.65
2023-03-27T00:18:58.905Z,99626.19
2023-03-27T00:21:27.296Z,99626.66
2023-03-27T00:23:56.880Z,99626.70
2023-03-27T00:26:25.185Z,99631.89
2023-03-27T00:28:55.091Z,99630.90
2023-03-27T00:31:23.596Z,99628.04
2023-03-27T00:33:52.159Z,99626.23
2023-03-27T00:36:21.562Z,99626.14
2023-03-27T00:38:53.232Z,99626.41
2023-03-27T00:41:23.549Z,99620.80
2023-03-27T00:43:54.539Z,99619.05
2023-03-27T00:46:34.824Z,99614.36
2023-03-27T00:49:06.985Z,99612.05
2023-03-27T00:51:37.333Z,99610.03
2023-03-27T00:54:06.532Z,99609.65
2023-03-27T00:56:37.908Z,99601.89
2023-03-27T00:59:12.729Z,99595.60
2023-03-27T01:01:42.836Z,99593.17
2023-03-27T01:04:11.112Z,99607.69
2023-03-27T01:06:42.444Z,99599.55
2023-03-27T01:09:11.253Z,99593.81
2023-03-27T01:12:07.066Z,99590.48
2023-03-27T01:14:42.108Z,99579.80
2023-03-27T01:17:28.211Z,99579.59
2023-03-27T01:20:04.351Z,99573.73
2023-03-27T01:22:32.733Z,99565.09
2023-03-27T01:25:10.744Z,99562.46
2023-03-27T01:28:13.286Z,99558.39
2023-03-27T01:30:53.195Z,99550.52
2023-03-27T01:34:03.996Z,99548.15
2023-03-27T01:37:09.955Z,99548.85
2023-03-27T01:39:44.873Z,99549.90
2023-03-27T01:42:23.560Z,99548.64
2023-03-27T01:45:01.934Z,99545.09
2023-03-27T01:48:04.929Z,99546.61
2023-03-27T01:50:46.325Z,99542.19
2023-03-27T01:53:43.090Z,99543.27
2023-03-27T01:56:26.441Z,99535.81
2023-03-27T01:59:09.544Z,99521.42
2023-03-27T02:01:43.508Z,99513.84
2023-03-27T02:04:17.330Z,99504.54
2023-03-27T02:06:52.150Z,99501.04
2023-03-27T02:09:23.555Z,99505.26
2023-03-27T02:11:58.582Z,99506.77
2023-03-27T02:14:36.685Z,99517.79
2023-03-27T02:17:13.109Z,99527.77
2023-03-27T02:19:49.833Z,99531.56
2023-03-27T02:22:18.721Z,99531.20
2023-03-27T02:24:54.286Z,99535.32
2023-03-27T02:27:35.649Z,99536.54
2023-03-27T02:30:31.448Z,99531.90
2023-03-27T02:33:02.778Z,99529.66
2023-03-27T02:35:43.266Z,99529.81
2023-03-27T02:38:38.018Z,99531.73
2023-03-27T02:41:34.868Z,99523.06
2023-03-27T02:44:14.579Z,99514.04
2023-03-27T02:47:07.227Z,99506.89
2023-03-27T02:49:45.227Z,99507.66
2023-03-27T02:52:21.073Z,99500.58
2023-03-27T02:54:56.161Z,99491.89
2023-03-27T02:57:28.166Z,99490.25
2023-03-27T03:00:20.741Z,99491.98
2023-03-27T03:03:05.813Z,99488.28
2023-03-27T03:05:37.251Z,99479.14
2023-03-27T03:08:10.392Z,99478.88
2023-03-27T03:10:46.220Z,99468.84
2023-03-27T03:13:16.419Z,99451.44
2023-03-27T03:15:46.350Z,99435.57
2023-03-27T03:18:15.074Z,99434.96
2023-03-27T03:20:44.627Z,99439.38
2023-03-27T03:23:12.706Z,99433.61
2023-03-27T03:25:41.797Z,99431.09
2023-03-27T03:28:10.787Z,99426.25
2023-03-27T03:30:43.230Z,99435.52
2023-03-27T03:33:14.415Z,99441.26
2023-03-27T03:35:43.406Z,99438.02
2023-03-27T03:38:28.264Z,99436.45
2023-03-27T03:40:59.684Z,99440.04
2023-03-27T03:43:31.276Z,99444.65
2023-03-27T03:46:00.518Z,99443.62
2023-03-27T03:48:28.850Z,99441.36
2023-03-27T03:50:57.371Z,99444.88
2023-03-27T03:53:26.834Z,99450.24
2023-03-27T03:55:56.113Z,99449.88
2023-03-27T03:58:34.513Z,99440.56
2023-03-27T04:01:05.996Z,99433.02
2023-03-27T04:03:45.739Z,99422.73
2023-03-27T04:06:14.329Z,99423.74
2023-03-27T04:08:43.628Z,99421.61
2023-03-27T04:11:31.976Z,99421.58
2023-03-27T04:14:21.140Z,99429.13
2023-03-27T04:16:51.165Z,99425.08
2023-03-27T04:19:22.528Z,99421.79
2023-03-27T04:22:04.612Z,99425.42
2023-03-27T04:24:35.683Z,99427.25
2023-03-27T04:27:04.576Z,99421.60
2023-03-27T04:30:08.815Z,99418.40
2023-03-27T04:33:00.204Z,99416.05
2023-03-27T04:35:43.497Z,99415.52
2023-03-27T04:38:20.154Z,99414.23
2023-03-27T04:40:54.381Z,99415.77
2023-03-27T04:43:27.600Z,99415.70
2023-03-27T04:45:58.907Z,99407.88
2023-03-27T04:48:27.226Z,99405.73
2023-03-27T04:50:56.833Z,99406.00
2023-03-27T04:53:36.790Z,99404.96
2023-03-27T04:56:07.562Z,99396.79
2023-03-27T04:58:37.978Z,99390.04
2023-03-27T05:01:11.064Z,99379.39
2023-03-27T05:04:18.039Z,99377.63
2023-03-27T05:07:06.070Z,99366.92
2023-03-27T05:09:34.328Z,99366.55
2023-03-27T05:12:02.708Z,99358.80
2023-03-27T05:14:42.410Z,99352.09
2023-03-27T05:17:25.973Z,99348.42
2023-03-27T05:19:55.270Z,99342.85
2023-03-27T05:22:23.978Z,99340.90
2023-03-27T05:24:59.201Z,99341.70
2023-03-27T05:27:28.518Z,99341.60
2023-03-27T05:29:58.433Z,99347.40
2023-03-27T05:32:27.382Z,99343.55
2023-03-27T05:35:18.652Z,99336.13
2023-03-27T05:37:49.270Z,99331.14
2023-03-27T05:40:39.544Z,99328.58
2023-03-27T05:43:10.324Z,99326.80
2023-03-27T05:45:39.290Z,99325.60
2023-03-27T05:48:09.229Z,99324.69
2023-03-27T05:50:42.426Z,99327.33
2023-03-27T05:53:28.638Z,99320.41
2023-03-27T05:56:27.514Z,99314.96
2023-03-27T05:58:59.455Z,99311.63
2023-03-27T06:01:28.248Z,99308.26
2023-03-27T06:03:58.982Z,99299.37
2023-03-27T06:06:36.885Z,99290.00
2023-03-27T06:09:06.022Z,99280.58
2023-03-27T06:11:35.486Z,99273.54
2023-03-27T06:14:04.369Z,99262.58
2023-03-27T06:16:52.964Z,99261.80
2023-03-27T06:19:39.323Z,99262.11
2023-03-27T06:22:07.806Z,99257.84
2023-03-27T06:24:36.813Z,99260.81
2023-03-27T06:27:05.489Z,99253.52
2023-03-27T06:29:37.461Z,99249.45
2023-03-27T06:32:06.753Z,99251.52
2023-03-27T06:34:41.174Z,99245.45
2023-03-27T06:37:37.118Z,99241.99
2023-03-27T06:40:10.244Z,99238.09
2023-03-27T06:42:40.012Z,99233.11
2023-03-27T06:45:27.634Z,99227.36
2023-03-27T06:48:25.450Z,99217.02
2023-03-27T06:50:58.126Z,99212.09
2023-03-27T06:53:28.597Z,99208.35
2023-03-27T06:55:58.359Z,99201.79
2023-03-27T06:58:28.258Z,99192.83
2023-03-27T07:00:57.144Z,99187.04
2023-03-27T07:03:44.554Z,99182.16
2023-03-27T07:06:31.799Z,99174.81
2023-03-27T07:09:05.781Z,99164.15
2023-03-27T07:11:34.260Z,99161.55
2023-03-27T07:14:08.885Z,99154.23
2023-03-27T07:16:37.739Z,99155.74
2023-03-27T07:19:06.572Z,99146.36
2023-03-27T07:21:35.456Z,99141.92
2023-03-27T07:24:03.833Z,99140.35
2023-03-27T07:26:34.670Z,99137.90
2023-03-27T07:29:22.447Z,99133.89
2023-03-27T07:31:56.888Z,99130.75
2023-03-27T07:34:34.213Z,99127.25
2023-03-27T07:37:31.900Z,99118.30
2023-03-27T07:40:29.347Z,99117.55
2023-03-27T07:43:24.761Z,99111.75
2023-03-27T07:45:53.891Z,99109.90
2023-03-27T07:48:22.336Z,99111.37
2023-03-27T07:50:51.875Z,99114.52
2023-03-27T07:53:33.999Z,99113.55
2023-03-27T07:56:11.309Z,99116.31
2023-03-27T07:58:41.035Z,99110.39
2023-03-27T08:01:09.525Z,99111.05
2023-03-27T08:03:39.553Z,99107.13
2023-03-27T08:06:08.846Z,99101.23
2023-03-27T08:08:37.636Z,99100.27
2023-03-27T08:11:13.477Z,99094.81
2023-03-27T08:13:48.622Z,99085.52
2023-03-27T08:16:18.585Z,99081.48
2023-03-27T08:18:47.641Z,99082.71
2023-03-27T08:21:16.827Z,99075.09
2023-03-27T08:23:46.237Z,99072.11
2023-03-27T08:26:33.760Z,99071.30
2023-03-27T08:29:04.499Z,99065.17
2023-03-27T08:31:34.620Z,99054.51
2023-03-27T08:34:05.152Z,99050.42
2023-03-27T08:36:48.067Z,99056.04
2023-03-27T08:39:16.672Z,99051.59
2023-03-27T08:42:03.940Z,99033.80
2023-03-27T08:44:37.448Z,99026.37
2023-03-27T08:47:31.828Z,99018.73
2023-03-27T08:50:18.060Z,99009.91
2023-03-27T08:52:50.144Z,98989.79
2023-03-27T08:55:42.756Z,98980.39
2023-03-27T08:58:21.237Z,98984.13
2023-03-27T09:01:18.809Z,98974.01
2023-03-27T09:03:53.873Z,98951.42
2023-03-27T09:06:22.688Z,98958.35
2023-03-27T09:09:04.288Z,98951.63
2023-03-27T09:11:55.042Z,98946.34
2023-03-27T09:14:51.513Z,98956.38
2023-03-27T09:17:52.127Z,98963.42
2023-03-27T09:20:32.510Z,98965.13
2023-03-27T09:23:09.176Z,98966.65
2023-03-27T09:26:04.348Z,98965.80
2023-03-27T09:29:24.893Z,98961.44
2023-03-27T09:32:03.309Z,98947.48
2023-03-27T09:34:33.572Z,98942.80
2023-03-27T09:37:02.825Z,98943.55
2023-03-27T09:39:34.320Z,98935.27
2023-03-27T09:42:20.559Z,98929.35
2023-03-27T09:44:56.415Z,98923.23
2023-03-27T09:47:38.626Z,98923.01
2023-03-27T09:50:20.532Z,98921.83
2023-03-27T09:53:17.073Z,98916.17
2023-03-27T09:56:01.108Z,98910.15
2023-03-27T09:58:40.902Z,98897.01
2023-03-27T10:01:14.713Z,98895.63
2023-03-27T10:03:53.675Z,98898.27
2023-03-27T10:06:48.433Z,98893.44
2023-03-27T10:09:40.680Z,98879.00
2023-03-27T10:12:19.113Z,98875.84
2023-03-27T10:14:52.831Z,98868.38
2023-03-27T10:17:32.202Z,98861.73
2023-03-27T10:20:16.189Z,98851.59
2023-03-27T10:23:01.502Z,98841.08
2023-03-27T10:25:36.238Z,98834.49
2023-03-27T10:28:29.508Z,98829.54
2023-03-27T10:31:30.064Z,98826.60
2023-03-27T10:34:06.303Z,98825.02
2023-03-27T10:37:40.942Z,98818.46
2023-03-27T10:40:33.504Z,98810.06
2023-03-27T10:43:14.041Z,98814.11
2023-03-27T10:45:51.757Z,98805.09
2023-03-27T10:48:51.150Z,98807.31
2023-03-27T10:51:47.360Z,98797.67
2023-03-27T10:54:47.066Z,98789.36
2023-03-27T10:57:29.297Z,98783.04
2023-03-27T11:00:13.840Z,98776.05
2023-03-27T11:03:03.347Z,98767.20
2023-03-27T11:05:39.761Z,98766.05
2023-03-27T11:08:19.502Z,98766.14
2023-03-27T11:10:49.614Z,98756.38
2023-03-27T11:13:28.480Z,98746.48
2023-03-27T11:16:20.038Z,98746.33
2023-03-27T11:19:38.160Z,98740.91
2023-03-27T11:22:33.765Z,98735.70
2023-03-27T11:25:14.240Z,98727.80
2023-03-27T11:28:03.817Z,98724.14
2023-03-27T11:30:44.523Z,98722.45
2023-03-27T11:33:38.347Z,98711.03
2023-03-27T11:36:37.860Z,98707.85
2023-03-27T11:39:55.084Z,98700.42
2023-03-27T11:42:29.725Z,98694.43
2023-03-27T11:44:58.947Z,98687.61
2023-03-27T11:48:24.939Z,98685.54
2023-03-27T11:51:05.509Z,98679.35
2023-03-27T11:53:40.031Z,98676.48
2023-03-27T11:56:29.308Z,98669.60
2023-03-27T11:59:32.860Z,98665.02
2023-03-27T12:02:18.990Z,98655.48
2023-03-27T12:05:10.716Z,98650.12
2023-03-27T12:07:59.290Z,98650.23
2023-03-27T12:10:32.167Z,98647.53
2023-03-27T12:13:34.832Z,98644.69
2023-03-27T12:16:16.137Z,98639.27
2023-03-27T12:19:27.959Z,98645.80
2023-03-27T12:22:27.196Z,98651.23
2023-03-27T12:25:23.275Z,98654.69
2023-03-27T12:28:40.146Z,98648.58
2023-03-27T12:31:54.158Z,98652.89
2023-03-27T12:34:28.746Z,98656.66
2023-03-27T12:36:59.526Z,98656.52
2023-03-27T12:39:29.009Z,98649.66
2023-03-27T12:42:14.114Z,98649.86
2023-03-27T12:45:13.667Z,98643.05
2023-03-27T12:48:05.233Z,98640.96
2023-03-27T12:50:59.166Z,98639.08
2023-03-27T12:53:29.754Z,98637.63
2023-03-27T12:56:12.323Z,98638.31
2023-03-27T12:58:41.774Z,98632.80
2023-03-27T13:01:52.035Z,98627.21
2023-03-27T13:04:25.065Z,98622.06
2023-03-27T13:07:05.326Z,98621.22
2023-03-27T13:10:08.529Z,98624.23
2023-03-27T13:12:57.967Z,98621.42
2023-03-27T13:15:54.990Z,98623.00
2023-03-27T13:18:57.219Z,98624.49
2023-03-27T13:21:38.615Z,98619.72
2023-03-27T13:24:31.456Z,98624.77
2023-03-27T13:27:02.803Z,98627.86
2023-03-27T13:29:34.668Z,98628.06
2023-03-27T13:32:24.162Z,98632.03
2023-03-27T13:35:17.403Z,98631.23
2023-03-27T13:38:00.822Z,98634.84
2023-03-27T13:40:51.276Z,98638.52
2023-03-27T13:43:35.558Z,98644.36
2023-03-27T13:46:29.316Z,98647.38
2023-03-27T13:49:16.681Z,98649.81
2023-03-27T13:52:26.554Z,98659.91
2023-03-27T13:55:18.360Z,98660.40
2023-03-27T13:58:26.475Z,98685.43
2023-03-27T14:01:31.847Z,98721.48
2023-03-27T14:04:33.680Z,98731.19
2023-03-27T14:07:20.036Z,98741.16
2023-03-27T14:10:37.686Z,98743.90
2023-03-27T14:13:09.265Z,98751.96
2023-03-27T14:16:11.706Z,98751.48
2023-03-27T14:19:01.833Z,98749.82
2023-03-27T14:21:49.688Z,98756.58
2023-03-27T14:24:30.743Z,98760.70
2023-03-27T14:27:14.024Z,98753.95
2023-03-27T14:29:42.353Z,98750.59
2023-03-27T14:32:15.860Z,98749.39
2023-03-27T14:35:03.069Z,98746.74
2023-03-27T14:37:36.986Z,98749.50
2023-03-27T14:40:23.160Z,98753.73
2023-03-27T14:42:56.155Z,98749.20
2023-03-27T14:45:30.171Z,98750.90
2023-03-27T14:48:19.550Z,98745.05
2023-03-27T14:50:51.668Z,98741.63
2023-03-27T14:53:26.361Z,98735.72
2023-03-27T14:56:23.250Z,98721.90
2023-03-27T14:59:15.376Z,98697.73
2023-03-27T15:02:00.291Z,98681.38
2023-03-27T15:04:31.676Z,98676.07
2023-03-27T15:07:22.445Z,98664.42
2023-03-27T15:10:06.704Z,98656.85
2023-03-27T15:12:56.059Z,98648.54
2023-03-27T15:15:34.694Z,98640.52
2023-03-27T15:18:05.553Z,98633.20
2023-03-27T15:20:37.489Z,98642.15
2023-03-27T15:23:23.092Z,98640.23
2023-03-27T15:26:03.019Z,98633.94
2023-03-27T15:28:42.870Z,98630.11
2023-03-27T15:31:11.946Z,98635.65
2023-03-27T15:34:06.256Z,98637.89
2023-03-27T15:36:37.808Z,98636.38
2023-03-27T15:39:07.463Z,98623.77
2023-03-27T15:41:42.665Z,98614.64
2023-03-27T15:44:16.052Z,98613.45
2023-03-27T15:46:54.223Z,98613.20
2023-03-27T15:49:33.186Z,98620.20
2023-03-27T15:52:28.013Z,98615.71
2023-03-27T15:54:57.097Z,98613.17
2023-03-27T15:57:29.469Z,98612.39
2023-03-27T16:00:08.756Z,98601.20
2023-03-27T16:02:41.629Z,98602.57
2023-03-27T16:05:16.822Z,98606.72
2023-03-27T16:07:47.559Z,98608.37
2023-03-27T16:10:31.395Z,98610.05
2023-03-27T16:13:07.649Z,98616.35
2023-03-27T16:15:37.805Z,98621.10
2023-03-27T16:18:19.686Z,98623.55
2023-03-27T16:20:48.156Z,98626.28
2023-03-27T16:23:16.455Z,98628.04
2023-03-27T16:25:44.938Z,98632.67
2023-03-27T16:28:14.613Z,98627.95
2023-03-27T16:30:42.962Z,98631.16
2023-03-27T16:33:17.197Z,98635.67
2023-03-27T16:35:46.063Z,98633.63
2023-03-27T16:38:14.800Z,98629.88
2023-03-27T16:40:44.378Z,98624.44
2023-03-27T16:43:12.778Z,98626.48
2023-03-27T16:45:41.598Z,98633.45
2023-03-27T16:48:11.278Z,98637.12
2023-03-27T16:50:39.968Z,98635.91
2023-03-27T16:53:08.449Z,98633.77
2023-03-27T16:55:36.938Z,98630.45
2023-03-27T16:58:05.488Z,98632.50
2023-03-27T17:00:33.769Z,98639.02
2023-03-27T17:03:02.117Z,98648.46
2023-03-27T17:05:34.540Z,98653.20
2023-03-27T17:08:04.543Z,98656.37
2023-03-27T17:10:34.675Z,98652.90
2023-03-27T17:13:02.975Z,98651.48
2023-03-27T17:15:36.286Z,98649.52
2023-03-27T17:18:06.222Z,98646.96
2023-03-27T17:20:35.576Z,98653.25
2023-03-27T17:23:03.945Z,98656.30
2023-03-27T17:25:32.422Z,98656.09
2023-03-27T17:28:00.701Z,98665.88
2023-03-27T17:30:39.540Z,98665.86
2023-03-27T17:33:12.527Z,98666.77
2023-03-27T17:35:41.976Z,98664.69
2023-03-27T17:38:11.732Z,98666.05
2023-03-27T17:40:41.476Z,98670.53
2023-03-27T17:43:10.020Z,98676.96
2023-03-27T17:45:42.292Z,98675.09
2023-03-27T17:48:11.574Z,98676.58
2023-03-27T17:50:40.077Z,98674.00
2023-03-27T17:53:08.295Z,98672.26
2023-03-27T17:55:38.162Z,98672.69
2023-03-27T17:58:09.977Z,98675.59
2023-03-27T18:00:41.514Z,98672.52
2023-03-27T18:03:10.124Z,98674.38
2023-03-27T18:05:40.199Z,98670.40
2023-03-27T18:08:11.765Z,98673.20
2023-03-27T18:10:45.254Z,98672.83
2023-03-27T18:13:13.414Z,98673.98
2023-03-27T18:15:41.807Z,98674.60
2023-03-27T18:18:10.672Z,98682.33
2023-03-27T18:20:39.065Z,98679.86
2023-03-27T18:23:07.435Z,98680.33
2023-03-27T18:25:36.022Z,98682.19
2023-03-27T18:28:04.806Z,98687.81
2023-03-27T18:30:32.985Z,98689.61
2023-03-27T18:33:01.740Z,98686.01
2023-03-27T18:35:31.403Z,98680.63
2023-03-27T18:37:59.757Z,98678.26
2023-03-27T18:40:28.244Z,98677.67
2023-03-27T18:42:56.479Z,98682.04
2023-03-27T18:45:25.710Z,98680.58
2023-03-27T18:47:54.210Z,98685.48
2023-03-27T18:50:23.809Z,98684.77
2023-03-27T18:52:52.090Z,98688.71
2023-03-27T18:55:21.075Z,98690.19
2023-03-27T18:57:49.244Z,98693.23
2023-03-27T19:00:21.131Z,98697.29
2023-03-27T19:02:49.461Z,98698.77
2023-03-27T19:05:18.379Z,98699.52
2023-03-27T19:07:47.061Z,98697.17
2023-03-27T19:10:15.857Z,98697.33
2023-03-27T19:12:47.309Z,98700.83
2023-03-27T19:15:20.130Z,98702.61
2023-03-27T19:17:58.014Z,98697.92
2023-03-27T19:20:49.413Z,98695.67
2023-03-27T19:23:37.755Z,98689.46
2023-03-27T19:26:11.799Z,98686.85
2023-03-27T19:28:44.305Z,98688.04
2023-03-27T19:31:12.858Z,98691.15
2023-03-27T19:33:43.158Z,98685.90
2023-03-27T19:36:11.743Z,98680.75
2023-03-27T19:38:40.224Z,98679.15
2023-03-27T19:41:10.102Z,98676.05
2023-03-27T19:43:38.305Z,98670.70
2023-03-27T19:46:15.765Z,98669.86
2023-03-27T19:48:47.660Z,98667.53
2023-03-27T19:51:26.796Z,98666.30
2023-03-27T19:53:55.685Z,98663.10
2023-03-27T19:56:26.827Z,98656.02
2023-03-27T19:58:56.338Z,98654.34
2023-03-27T20:01:28.561Z,98650.20
2023-03-27T20:03:58.141Z,98648.20
2023-03-27T20:06:28.975Z,98644.98
2023-03-27T20:09:01.216Z,98646.15
2023-03-27T20:11:29.405Z,98643.77
2023-03-27T20:13:57.558Z,98643.23
2023-03-27T20:16:27.713Z,98643.52
2023-03-27T20:19:03.752Z,98642.29
2023-03-27T20:21:36.297Z,98639.91
2023-03-27T20:24:10.099Z,98637.05
2023-03-27T20:26:42.249Z,98635.41
2023-03-27T20:29:18.928Z,98633.65
2023-03-27T20:31:48.236Z,98633.20
2023-03-27T20:34:20.037Z,98629.11
2023-03-27T20:36:48.519Z,98627.38
2023-03-27T20:39:31.129Z,98630.86
2023-03-27T20:41:59.496Z,98630.20
2023-03-27T20:44:35.520Z,98631.77
2023-03-27T20:47:11.166Z,98635.02
2023-03-27T20:49:42.862Z,98631.73
2023-03-27T20:52:15.749Z,98638.09
2023-03-27T20:54:44.662Z,98641.55
2023-03-27T20:57:13.578Z,98640.36
2023-03-27T20:59:41.858Z,98636.36
2023-03-27T21:02:17.123Z,98638.94
2023-03-27T21:04:46.787Z,98641.74
2023-03-27T21:07:16.126Z,98638.69
2023-03-27T21:09:47.411Z,98631.27
2023-03-27T21:12:16.204Z,98634.02
2023-03-27T21:14:44.572Z,98636.90
2023-03-27T21:17:13.466Z,98631.70
2023-03-27T21:19:41.949Z,98636.41
2023-03-27T21:22:10.434Z,98635.56
2023-03-27T21:24:40.876Z,98625.52
2023-03-27T21:27:09.447Z,98624.02
2023-03-27T21:29:38.031Z,98630.47
2023-03-27T21:32:07.065Z,98632.30
2023-03-27T21:34:37.961Z,98638.23
2023-03-27T21:37:07.198Z,98642.95
2023-03-27T21:39:35.640Z,98643.05
2023-03-27T21:42:04.239Z,98639.35
2023-03-27T21:44:32.405Z,98642.98
2023-03-27T21:47:00.880Z,98641.61
2023-03-27T21:49:29.259Z,98635.61
2023-03-27T21:51:57.330Z,98636.48
2023-03-27T21:54:25.712Z,98636.23
2023-03-27T21:56:53.966Z,98633.16
2023-03-27T21:59:22.297Z,98635.64
2023-03-27T22:01:51.216Z,98636.29
2023-03-27T22:04:21.758Z,98633.66
2023-03-27T22:06:50.166Z,98636.15
2023-03-27T22:09:18.647Z,98633.41
2023-03-27T22:11:47.231Z,98636.66
2023-03-27T22:14:15.608Z,98629.73
2023-03-27T22:16:44.707Z,98629.16
2023-03-27T22:19:12.983Z,98629.55
2023-03-27T22:21:41.464Z,98630.21
2023-03-27T22:24:09.612Z,98628.02
2023-03-27T22:26:39.926Z,98630.70
2023-03-27T22:29:09.494Z,98625.95
2023-03-27T22:31:38.501Z,98621.14
2023-03-27T22:34:06.842Z,98621.44
2023-03-27T22:36:35.552Z,98622.45
2023-03-27T22:39:04.318Z,98626.66
2023-03-27T22:41:32.698Z,98629.77
2023-03-27T22:44:01.996Z,98629.26
2023-03-27T22:46:30.618Z,98627.27
2023-03-27T22:48:59.476Z,98625.48
2023-03-27T22:51:29.999Z,98623.50
2023-03-27T22:53:58.475Z,98625.80
2023-03-27T22:56:26.762Z,98631.64
2023-03-27T22:58:55.235Z,98632.91
2023-03-27T23:01:23.434Z,98636.63
2023-03-27T23:03:51.781Z,98641.48
2023-03-27T23:06:22.975Z,98651.07
2023-03-27T23:08:52.334Z,98645.55
2023-03-27T23:11:20.829Z,98650.23
2023-03-27T23:13:49.823Z,98651.76
2023-03-27T23:16:17.986Z,98649.27
2023-03-27T23:18:46.793Z,98649.92
2023-03-27T23:21:18.580Z,98649.98
2023-03-27T23:23:47.116Z,98647.45
2023-03-27T23:26:16.113Z,98648.98
2023-03-27T23:28:44.593Z,98647.14
2023-03-27T23:31:17.167Z,98648.95
2023-03-27T23:33:49.032Z,98652.75
2023-03-27T23:36:23.113Z,98655.31
2023-03-27T23:38:52.958Z,98658.14
2023-03-27T23:41:21.441Z,98662.27
2023-03-27T23:43:50.144Z,98658.38
2023-03-27T23:46:18.574Z,98661.25
2023-03-27T23:48:47.092Z,98661.96
2023-03-27T23:51:16.799Z,98656.11
2023-03-27T23:53:45.725Z,98650.19
2023-03-27T23:56:13.973Z,98648.95
2023-03-27T23:58:42.346Z,98650.14
